createdAt,value
2018-03-16T00:02:12.700Z,35.58
2018-03-16T00:05:23.423Z,34.20
2018-03-16T00:08:34.942Z,25.85
2018-03-16T00:11:45.014Z,24.25
2018-03-16T00:14:55.073Z,27.48
2018-03-16T00:18:04.811Z,29.12
2018-03-16T00:21:15.010Z,17.55
2018-03-16T00:24:24.935Z,27.25
2018-03-16T00:27:35.678Z,24.50
2018-03-16T00:30:45.536Z,30.98
2018-03-16T00:33:55.429Z,38.75
2018-03-16T00:37:05.206Z,25.17
2018-03-16T00:40:15.158Z,26.40
2018-03-16T00:43:25.761Z,29.20
2018-03-16T00:46:36.005Z,33.88
2018-03-16T00:49:46.933Z,30.20
2018-03-16T00:52:57.045Z,38.40
2018-03-16T00:56:06.906Z,23.73
2018-03-16T00:59:16.829Z,26.50
2018-03-16T01:02:27.670Z,32.80
2018-03-16T01:05:37.828Z,27.17
2018-03-16T01:08:47.734Z,35.50
2018-03-16T01:11:57.729Z,26.23
2018-03-16T01:15:08.448Z,31.08
2018-03-16T01:18:18.485Z,32.50
2018-03-16T01:21:29.255Z,26.60
2018-03-16T01:24:39.018Z,22.00
2018-03-16T01:27:48.922Z,29.85
2018-03-16T01:30:58.910Z,35.40
2018-03-16T01:34:08.851Z,31.35
2018-03-16T01:37:18.730Z,29.58
2018-03-16T01:40:28.635Z,41.95
2018-03-16T01:43:38.602Z,23.00
2018-03-16T01:46:49.321Z,30.77
2018-03-16T01:49:59.568Z,30.62
2018-03-16T01:53:17.196Z,29.65
2018-03-16T01:56:27.914Z,30.70
2018-03-16T01:59:37.832Z,28.98
2018-03-16T02:02:47.820Z,32.75
2018-03-16T02:05:57.631Z,29.90
2018-03-16T02:09:07.378Z,30.17
2018-03-16T02:12:17.432Z,41.30
2018-03-16T02:15:27.240Z,24.42
2018-03-16T02:18:37.260Z,33.92
2018-03-16T02:21:47.970Z,38.33
2018-03-16T02:24:58.182Z,26.33
2018-03-16T02:28:07.999Z,30.92
2018-03-16T02:31:18.794Z,28.90
2018-03-16T02:34:29.439Z,29.60
2018-03-16T02:37:39.528Z,25.37
2018-03-16T02:40:50.226Z,34.97
2018-03-16T02:44:00.281Z,30.85
2018-03-16T02:47:10.233Z,30.42
2018-03-16T02:50:20.306Z,25.77
2018-03-16T02:53:30.116Z,27.85
2018-03-16T02:56:40.878Z,42.30
2018-03-16T02:59:50.654Z,31.20
2018-03-16T03:03:00.642Z,29.60
2018-03-16T03:06:10.526Z,45.40
2018-03-16T03:09:20.546Z,29.25
2018-03-16T03:12:30.406Z,34.22
2018-03-16T03:15:40.579Z,51.85
2018-03-16T03:18:50.500Z,39.20
2018-03-16T03:22:00.624Z,21.90
2018-03-16T03:25:10.356Z,33.58
2018-03-16T03:28:21.109Z,28.02
2018-03-16T03:31:30.952Z,32.05
2018-03-16T03:34:40.922Z,28.92
2018-03-16T03:37:51.006Z,26.62
2018-03-16T03:41:00.848Z,25.37
2018-03-16T03:44:10.613Z,33.38
2018-03-16T03:47:20.408Z,29.25
2018-03-16T03:50:30.294Z,36.22
2018-03-16T03:53:40.173Z,28.48
2018-03-16T03:56:50.097Z,37.40
2018-03-16T03:59:59.871Z,34.42
2018-03-16T04:03:09.774Z,47.95
2018-03-16T04:06:20.510Z,30.95
2018-03-16T04:09:30.938Z,31.27
2018-03-16T04:12:42.509Z,30.88
2018-03-16T04:15:53.042Z,37.58
2018-03-16T04:19:02.972Z,32.25
2018-03-16T04:22:12.713Z,31.80
2018-03-16T04:25:22.626Z,20.92
2018-03-16T04:28:33.226Z,23.98
2018-03-16T04:31:43.492Z,29.70
2018-03-16T04:34:54.162Z,34.17
2018-03-16T04:38:05.089Z,28.73
2018-03-16T04:41:15.136Z,26.83
2018-03-16T04:44:24.730Z,22.83
2018-03-16T04:47:34.819Z,38.15
2018-03-16T04:50:44.752Z,41.63
2018-03-16T04:53:55.336Z,33.63
2018-03-16T04:57:05.346Z,42.60
2018-03-16T05:00:15.890Z,36.70
2018-03-16T05:03:26.590Z,32.65
2018-03-16T05:06:36.638Z,28.05
2018-03-16T05:09:47.189Z,26.30
2018-03-16T05:12:57.137Z,46.58
2018-03-16T05:16:07.017Z,26.70
2018-03-16T05:19:17.719Z,28.73
2018-03-16T05:22:28.296Z,22.87
2018-03-16T05:25:38.835Z,32.60
2018-03-16T05:28:49.013Z,25.60
2018-03-16T05:31:58.795Z,24.50
2018-03-16T05:35:08.705Z,28.87
2018-03-16T05:38:18.566Z,30.58
2018-03-16T05:41:28.509Z,28.45
2018-03-16T05:44:38.492Z,26.42
2018-03-16T05:47:48.591Z,26.75
2018-03-16T05:50:58.585Z,30.40
2018-03-16T05:54:09.868Z,53.97
2018-03-16T05:57:20.341Z,34.90
2018-03-16T06:00:30.319Z,32.75
2018-03-16T06:03:40.118Z,29.35
2018-03-16T06:06:49.897Z,30.45
2018-03-16T06:10:00.428Z,25.33
2018-03-16T06:13:10.673Z,24.42
2018-03-16T06:16:20.660Z,41.42
2018-03-16T06:19:32.216Z,33.20
2018-03-16T06:22:44.139Z,29.45
2018-03-16T06:25:54.590Z,30.42
2018-03-16T06:29:05.292Z,28.58
2018-03-16T06:32:15.632Z,28.02
2018-03-16T06:35:25.572Z,35.83
2018-03-16T06:38:37.057Z,22.70
2018-03-16T06:41:47.531Z,27.77
2018-03-16T06:44:58.462Z,34.83
2018-03-16T06:48:08.684Z,31.35
2018-03-16T06:51:18.530Z,24.17
2018-03-16T06:54:28.278Z,27.95
2018-03-16T06:57:38.465Z,26.60
2018-03-16T07:00:49.146Z,24.02
2018-03-16T07:03:59.282Z,28.12
2018-03-16T07:07:09.489Z,24.80
2018-03-16T07:10:20.034Z,22.45
2018-03-16T07:13:29.982Z,23.35
2018-03-16T07:16:42.808Z,27.00
2018-03-16T07:19:56.924Z,24.58
2018-03-16T07:23:07.726Z,28.00
2018-03-16T07:26:18.518Z,27.98
2018-03-16T07:29:30.069Z,28.02
2018-03-16T07:32:41.197Z,31.45
2018-03-16T07:35:53.598Z,25.48
2018-03-16T07:39:04.072Z,28.87
2018-03-16T07:42:15.058Z,24.75
2018-03-16T07:45:30.793Z,28.83
2018-03-16T07:48:42.510Z,35.38
2018-03-16T07:51:53.798Z,31.00
2018-03-16T07:55:04.066Z,23.67
2018-03-16T07:58:15.469Z,27.13
2018-03-16T08:01:25.766Z,24.90
2018-03-16T08:04:36.628Z,25.10
2018-03-16T08:07:46.436Z,21.90
2018-03-16T08:10:56.412Z,23.58
2018-03-16T08:14:07.206Z,27.50
2018-03-16T08:17:17.511Z,19.20
2018-03-16T08:20:27.302Z,20.90
2018-03-16T08:23:38.024Z,25.95
2018-03-16T08:26:47.769Z,21.67
2018-03-16T08:29:57.669Z,17.52
2018-03-16T08:33:07.678Z,20.27
2018-03-16T08:36:17.702Z,24.67
2018-03-16T08:39:28.151Z,21.58
2018-03-16T08:42:38.052Z,17.35
2018-03-16T08:45:48.774Z,12.02
2018-03-16T08:48:59.432Z,10.52
2018-03-16T08:52:10.291Z,23.67
2018-03-16T08:55:20.840Z,26.10
2018-03-16T08:58:31.213Z,11.27
2018-03-16T09:01:41.063Z,10.18
2018-03-16T09:04:51.705Z,16.50
2018-03-16T09:08:02.728Z,9.57
2018-03-16T09:11:13.250Z,12.37
2018-03-16T09:14:23.678Z,10.98
2018-03-16T09:17:33.499Z,13.13
2018-03-16T09:20:44.229Z,10.70
2018-03-16T09:23:54.260Z,12.65
2018-03-16T09:27:04.969Z,17.20
2018-03-16T09:30:15.776Z,14.32
2018-03-16T09:33:26.407Z,12.43
2018-03-16T09:36:36.721Z,11.68
2018-03-16T09:39:46.744Z,10.93
2018-03-16T09:42:57.433Z,10.25
2018-03-16T09:46:08.107Z,9.02
2018-03-16T09:49:18.267Z,8.48
2018-03-16T09:52:28.601Z,9.40
2018-03-16T09:55:43.954Z,14.02
2018-03-16T09:58:55.669Z,9.32
2018-03-16T10:02:05.630Z,10.30
2018-03-16T10:05:15.512Z,8.68
2018-03-16T10:08:25.377Z,9.27
2018-03-16T10:11:36.309Z,10.90
2018-03-16T10:14:46.806Z,7.85
2018-03-16T10:17:57.510Z,12.43
2018-03-16T10:21:08.082Z,16.60
2018-03-16T10:24:18.147Z,9.73
2018-03-16T10:27:27.938Z,8.02
2018-03-16T10:30:38.552Z,9.48
2018-03-16T10:33:48.672Z,9.48
2018-03-16T10:36:58.594Z,7.78
2018-03-16T10:40:09.182Z,9.45
2018-03-16T10:43:19.839Z,8.63
2018-03-16T10:46:29.863Z,10.70
2018-03-16T10:49:41.382Z,7.95
2018-03-16T10:52:52.158Z,23.80
2018-03-16T10:56:02.692Z,8.88
2018-03-16T10:59:12.976Z,10.10
2018-03-16T11:02:23.489Z,15.75
2018-03-16T11:05:40.752Z,8.77
2018-03-16T11:08:50.572Z,10.93
2018-03-16T11:12:00.607Z,11.50
2018-03-16T11:15:12.210Z,9.65
2018-03-16T11:18:23.146Z,9.30
2018-03-16T11:21:33.267Z,14.45
2018-03-16T11:24:43.199Z,10.68
2018-03-16T11:27:53.927Z,17.27
2018-03-16T11:31:03.752Z,20.10
2018-03-16T11:34:13.997Z,19.65
2018-03-16T11:37:23.946Z,29.02
2018-03-16T11:40:34.539Z,27.58
2018-03-16T11:43:45.533Z,23.10
2018-03-16T11:46:56.050Z,22.87
2018-03-16T11:50:06.126Z,26.48
2018-03-16T11:53:16.953Z,19.83
2018-03-16T11:56:28.271Z,29.02
2018-03-16T11:59:39.545Z,22.80
2018-03-16T12:02:50.453Z,27.08
2018-03-16T12:06:00.871Z,22.33
2018-03-16T12:09:13.014Z,18.33
2018-03-16T12:12:23.365Z,20.30
2018-03-16T12:15:34.786Z,21.45
2018-03-16T12:18:45.557Z,18.95
2018-03-16T12:21:56.316Z,23.83
2018-03-16T12:25:07.287Z,22.30
2018-03-16T12:28:16.799Z,18.00
2018-03-16T12:31:27.338Z,23.40
2018-03-16T12:34:37.947Z,22.65
2018-03-16T12:37:49.539Z,20.08
2018-03-16T12:40:59.822Z,18.25
2018-03-16T12:44:11.130Z,14.63
2018-03-16T12:47:21.851Z,18.25
2018-03-16T12:50:32.191Z,24.08
2018-03-16T12:53:42.912Z,15.88
2018-03-16T12:56:53.355Z,16.52
2018-03-16T13:00:04.081Z,24.80
2018-03-16T13:03:14.502Z,14.75
2018-03-16T13:06:24.428Z,14.32
2018-03-16T13:09:34.244Z,16.92
2018-03-16T13:12:43.992Z,18.87
2018-03-16T13:15:53.862Z,24.70
2018-03-16T13:19:03.732Z,15.77
2018-03-16T13:22:14.249Z,20.73
2018-03-16T13:25:25.152Z,14.75
2018-03-16T13:28:35.130Z,15.05
2018-03-16T13:31:45.150Z,17.90
2018-03-16T13:34:55.885Z,15.30
2018-03-16T13:38:06.771Z,14.43
2018-03-16T13:41:16.869Z,10.68
2018-03-16T13:44:27.590Z,14.13
2018-03-16T13:47:37.341Z,15.65
2018-03-16T13:50:47.107Z,14.93
2018-03-16T13:53:57.211Z,14.95
2018-03-16T13:57:07.166Z,18.70
2018-03-16T14:00:17.882Z,17.50
2018-03-16T14:03:27.677Z,15.77
2018-03-16T14:06:38.379Z,12.40
2018-03-16T14:09:48.529Z,12.30
2018-03-16T14:12:58.404Z,13.95
2018-03-16T14:16:08.554Z,17.40
2018-03-16T14:19:18.536Z,21.40
2018-03-16T14:22:29.315Z,13.20
2018-03-16T14:25:39.589Z,11.57
2018-03-16T14:28:50.467Z,16.75
2018-03-16T14:32:00.529Z,13.20
2018-03-16T14:35:10.833Z,17.83
2018-03-16T14:38:21.649Z,16.65
2018-03-16T14:41:31.790Z,17.17
2018-03-16T14:44:41.691Z,10.52
2018-03-16T14:47:51.655Z,13.13
2018-03-16T14:51:01.492Z,15.43
2018-03-16T14:54:11.565Z,17.87
2018-03-16T14:57:22.324Z,20.83
2018-03-16T15:00:32.910Z,25.33
2018-03-16T15:03:43.114Z,16.35
2018-03-16T15:06:53.931Z,18.20
2018-03-16T15:10:04.385Z,20.70
2018-03-16T15:13:14.552Z,14.13
2018-03-16T15:16:25.414Z,13.10
2018-03-16T15:19:35.362Z,20.50
2018-03-16T15:22:45.285Z,18.23
2018-03-16T15:25:55.622Z,23.58
2018-03-16T15:29:05.549Z,17.20
2018-03-16T15:32:16.188Z,19.85
2018-03-16T15:35:26.168Z,17.15
2018-03-16T15:38:37.221Z,18.05
2018-03-16T15:41:47.865Z,22.87
2018-03-16T15:44:58.355Z,30.58
2018-03-16T15:48:08.372Z,21.85
2018-03-16T15:51:19.079Z,16.60
2018-03-16T15:54:28.963Z,21.12
2018-03-16T15:57:39.703Z,23.12
2018-03-16T16:00:50.430Z,20.27
2018-03-16T16:04:00.358Z,21.48
2018-03-16T16:07:11.066Z,28.42
2018-03-16T16:10:21.166Z,12.30
2018-03-16T16:13:31.981Z,17.58
2018-03-16T16:16:43.502Z,15.82
2018-03-16T16:19:53.558Z,19.80
2018-03-16T16:23:04.040Z,12.70
2018-03-16T16:26:13.967Z,17.62
2018-03-16T16:29:24.520Z,12.75
2018-03-16T16:32:35.210Z,18.05
2018-03-16T16:35:45.540Z,10.07
2018-03-16T16:38:56.897Z,16.73
2018-03-16T16:42:06.935Z,17.15
2018-03-16T16:45:17.411Z,12.52
2018-03-16T16:48:28.458Z,24.25
2018-03-16T16:51:38.684Z,9.30
2018-03-16T16:54:48.882Z,16.23
2018-03-16T16:57:59.943Z,14.90
2018-03-16T17:01:10.908Z,15.48
2018-03-16T17:04:20.787Z,16.23
2018-03-16T17:07:31.339Z,15.88
2018-03-16T17:10:42.338Z,19.45
2018-03-16T17:13:52.951Z,18.15
2018-03-16T17:17:03.170Z,16.80
2018-03-16T17:20:13.219Z,18.37
2018-03-16T17:23:23.040Z,19.27
2018-03-16T17:26:32.908Z,17.35
2018-03-16T17:29:42.767Z,18.48
2018-03-16T17:32:52.660Z,18.02
2018-03-16T17:36:02.611Z,20.27
2018-03-16T17:39:12.398Z,15.82
2018-03-16T17:42:22.122Z,18.42
2018-03-16T17:45:32.048Z,16.75
2018-03-16T17:48:41.976Z,23.45
2018-03-16T17:51:52.720Z,15.70
2018-03-16T17:55:02.630Z,18.20
2018-03-16T17:58:13.140Z,19.77
2018-03-16T18:01:24.022Z,16.05
2018-03-16T18:04:34.164Z,19.20
2018-03-16T18:07:44.444Z,23.65
2018-03-16T18:10:55.074Z,14.15
2018-03-16T18:14:04.918Z,18.00
2018-03-16T18:17:15.325Z,19.87
2018-03-16T18:20:25.546Z,27.80
2018-03-16T18:23:35.359Z,18.62
2018-03-16T18:26:45.147Z,24.75
2018-03-16T18:29:54.916Z,24.50
2018-03-16T18:33:04.835Z,21.08
2018-03-16T18:36:14.591Z,14.93
2018-03-16T18:39:24.565Z,15.30
2018-03-16T18:42:35.279Z,21.73
2018-03-16T18:45:45.948Z,18.90
2018-03-16T18:48:55.975Z,24.75
2018-03-16T18:52:06.981Z,23.50
2018-03-16T18:55:16.947Z,32.95
2018-03-16T18:58:27.648Z,17.98
2018-03-16T19:01:38.272Z,13.82
2018-03-16T19:04:48.371Z,23.62
2018-03-16T19:07:58.405Z,20.52
2018-03-16T19:11:09.081Z,19.05
2018-03-16T19:14:19.380Z,18.02
2018-03-16T19:17:29.530Z,17.73
2018-03-16T19:20:39.551Z,24.60
2018-03-16T19:23:49.616Z,22.92
2018-03-16T19:26:59.552Z,22.75
2018-03-16T19:30:09.542Z,19.45
2018-03-16T19:33:19.427Z,11.60
2018-03-16T19:36:29.320Z,18.62
2018-03-16T19:39:39.262Z,22.65
2018-03-16T19:42:49.881Z,16.75
2018-03-16T19:46:00.406Z,15.15
2018-03-16T19:49:11.750Z,20.62
2018-03-16T19:52:21.751Z,25.12
2018-03-16T19:55:32.189Z,19.95
2018-03-16T19:58:43.695Z,31.02
2018-03-16T20:01:56.640Z,30.55
2018-03-16T20:05:07.096Z,26.50
2018-03-16T20:08:16.873Z,19.77
2018-03-16T20:11:27.547Z,21.10
2018-03-16T20:14:37.463Z,24.37
2018-03-16T20:17:47.344Z,30.20
2018-03-16T20:20:57.168Z,30.70
2018-03-16T20:24:07.192Z,19.23
2018-03-16T20:27:19.021Z,33.33
2018-03-16T20:30:29.163Z,19.33
2018-03-16T20:33:39.444Z,23.17
2018-03-16T20:36:49.428Z,28.20
2018-03-16T20:39:59.561Z,25.62
2018-03-16T20:43:09.705Z,23.50
2018-03-16T20:46:19.624Z,24.12
2018-03-16T20:49:30.378Z,15.52
2018-03-16T20:52:40.509Z,22.87
2018-03-16T20:55:51.208Z,22.75
2018-03-16T20:59:01.295Z,14.77
2018-03-16T21:02:12.879Z,20.58
2018-03-16T21:05:22.677Z,28.73
2018-03-16T21:08:33.662Z,23.27
2018-03-16T21:11:44.614Z,24.05
2018-03-16T21:14:54.529Z,18.20
2018-03-16T21:18:05.249Z,23.50
2018-03-16T21:21:21.231Z,24.35
2018-03-16T21:24:32.782Z,19.10
2018-03-16T21:27:42.979Z,17.08
2018-03-16T21:30:53.560Z,21.02
2018-03-16T21:34:04.423Z,25.62
2018-03-16T21:37:15.259Z,24.02
2018-03-16T21:40:26.010Z,18.10
2018-03-16T21:43:36.082Z,17.05
2018-03-16T21:46:46.937Z,20.60
2018-03-16T21:50:02.459Z,18.37
2018-03-16T21:53:13.139Z,22.33
2018-03-16T21:56:24.007Z,13.50
2018-03-16T21:59:35.044Z,15.80
2018-03-16T22:02:44.633Z,29.90
2018-03-16T22:05:54.705Z,21.42
2018-03-16T22:09:03.910Z,29.45
2018-03-16T22:12:14.732Z,18.67
2018-03-16T22:15:25.589Z,20.92
2018-03-16T22:18:36.260Z,17.00
2018-03-16T22:21:46.346Z,17.35
2018-03-16T22:24:57.279Z,16.80
2018-03-16T22:28:07.595Z,17.67
2018-03-16T22:31:17.910Z,21.17
2018-03-16T22:37:45.002Z,21.05
2018-03-16T22:40:54.909Z,21.05
2018-03-16T22:44:04.900Z,15.48
2018-03-16T22:47:14.640Z,29.50
2018-03-16T22:50:24.909Z,15.98
2018-03-16T22:53:35.364Z,14.15
2018-03-16T22:56:45.406Z,18.60
2018-03-16T22:59:55.444Z,12.90
2018-03-16T23:03:05.490Z,22.62
2018-03-16T23:06:15.414Z,17.23
2018-03-16T23:09:26.215Z,26.40
2018-03-16T23:12:36.169Z,15.45
2018-03-16T23:15:46.001Z,28.30
2018-03-16T23:18:56.300Z,13.18
2018-03-16T23:22:07.115Z,21.27
2018-03-16T23:25:18.664Z,17.12
2018-03-16T23:28:28.944Z,14.50
2018-03-16T23:31:39.785Z,18.05
2018-03-16T23:34:49.761Z,24.42
2018-03-16T23:37:59.959Z,29.52
2018-03-16T23:41:09.800Z,17.17
2018-03-16T23:44:19.760Z,17.98
2018-03-16T23:47:29.873Z,18.98
2018-03-16T23:50:40.189Z,26.23
2018-03-16T23:53:50.331Z,23.12
2018-03-16T23:57:00.943Z,13.70
